Ballard, West Virginia
Current Conditions -  °F | °C
As of 12:35 PM on Wednesday 26 Nov 2014 (Local Time) from KPSK Reporting Station
Light Rain Light Rain  
Wind Chill: 36°   Ceiling: 4500
Heat Index: 36°   Visibility: 5mi
Dew Point: 36°   Wind: 0mph
Humidity: 100%   Direction: NA
Pressure: 29.98"   Gusts: NA
Location:  37.47°N, 80.78°W
Report Text: KPSK 261735Z AUTO 00000KT 5SM -RA SCT040 BKN045 OVC065 02/02 A2998 RMK AO2 T00240024
Loading
Personal Weather Stations






























Interactive Weather Map New forecast layout! Learn more

10-Day Weather Forecast

Advertisements
Track Severe Weather on mobile